Time;durP1;ratioP1;P1;durP2;ratioP2;P2;SDS_P1;SDS_P2;PMS_P1;PMS_P2;Temp;Humidity;BMP_temperature;BMP_pressure;BME280_temperature;BME280_humidity;BME280_pressure;Samples;Min_cycle;Max_cycle;Signal;HPM_P1;HPM_P2
2022/06/16 00:00:14;;;;;;;;;4.00;3.67;;;;;21.00;46.72;98726.50;5005763;27;104084;-57
2022/06/16 00:02:42;;;;;;;;;4.00;4.00;;;;;21.01;47.09;98731.75;4977018;28;105858;-57
2022/06/16 00:05:11;;;;;;;;;3.67;3.00;;;;;21.01;46.92;98730.91;4998675;27;102486;-57
2022/06/16 00:07:39;;;;;;;;;4.33;4.00;;;;;21.01;46.71;98731.75;4969581;27;102204;-57
2022/06/16 00:10:06;;;;;;;;;5.00;4.00;;;;;21.01;46.99;98731.75;4990957;28;105915;-57
2022/06/16 00:12:33;;;;;;;;;5.00;4.00;;;;;21.01;47.06;98726.25;4969761;27;102719;-56
2022/06/16 00:15:01;;;;;;;;;4.67;4.00;;;;;21.02;46.81;98727.06;4994315;28;102187;-57
2022/06/16 00:17:28;;;;;;;;;4.33;4.33;;;;;21.00;46.97;98721.00;5007248;27;102353;-57
2022/06/16 00:19:56;;;;;;;;;3.33;3.33;;;;;21.02;46.63;98724.31;5003559;27;104051;-56
2022/06/16 00:22:23;;;;;;;;;4.00;4.00;;;;;21.00;47.10;98715.50;4990565;27;102128;-56
2022/06/16 00:24:51;;;;;;;;;3.00;3.00;;;;;20.99;46.88;98714.66;4994365;27;102589;-56
2022/06/16 00:27:18;;;;;;;;;4.67;3.67;;;;;20.98;47.17;98706.72;4995910;27;102133;-56
2022/06/16 00:29:45;;;;;;;;;4.67;4.00;;;;;20.98;46.93;98703.97;4991385;27;104298;-56
2022/06/16 00:32:15;;;;;;;;;4.00;4.00;;;;;20.98;47.07;98698.47;4981883;27;102516;-57
2022/06/16 00:34:43;;;;;;;;;2.67;2.67;;;;;20.98;47.12;98699.28;4992784;27;102025;-56
2022/06/16 00:37:10;;;;;;;;;5.00;4.00;;;;;20.96;47.22;98692.38;5000806;27;102006;-57
2022/06/16 00:39:37;;;;;;;;;4.33;4.00;;;;;20.96;47.10;98693.22;4984056;28;108893;-57
2022/06/16 00:42:15;;;;;;;;;4.00;4.00;;;;;20.96;46.65;98695.97;4978074;27;102120;-57
2022/06/16 00:44:46;;;;;;;;;4.00;4.00;;;;;20.95;47.22;98691.56;4990135;28;102143;-57
2022/06/16 00:47:13;;;;;;;;;5.00;4.00;;;;;20.97;47.46;98688.56;5000070;27;102192;-56
2022/06/16 00:49:42;;;;;;;;;5.00;4.00;;;;;20.96;47.02;98684.97;4980204;27;104077;-56
2022/06/16 00:52:12;;;;;;;;;2.67;2.67;;;;;20.95;47.28;98677.81;4990271;28;102744;-56
2022/06/16 00:54:59;;;;;;;;;4.00;4.00;;;;;20.97;47.00;98681.13;4983629;28;102492;-56
2022/06/16 00:57:35;;;;;;;;;4.00;4.00;;;;;20.96;46.72;98684.13;4977709;27;103090;-57
2022/06/16 01:00:26;;;;;;;;;4.00;3.00;;;;;20.96;46.89;98675.91;4987762;28;104071;-57
2022/06/16 01:02:53;;;;;;;;;7.00;4.00;;;;;20.94;47.01;98676.97;4955971;27;102379;-57
2022/06/16 01:05:20;;;;;;;;;4.33;4.33;;;;;20.93;47.34;98669.84;4937713;28;102154;-56
2022/06/16 01:07:47;;;;;;;;;5.33;3.67;;;;;20.93;46.97;98677.28;4985766;27;102273;-57
2022/06/16 01:10:14;;;;;;;;;3.33;3.00;;;;;20.94;47.13;98673.41;4976328;28;103871;-56
2022/06/16 01:16:10;;;;;;;;;5.00;4.67;;;;;20.93;47.07;98663.53;4966553;27;102282;-56
2022/06/16 01:19:37;;;;;;;;;3.67;3.67;;;;;20.93;47.05;98671.78;4975762;28;102780;-56
2022/06/16 01:22:08;;;;;;;;;5.00;3.33;;;;;20.92;47.08;98668.19;4896923;28;108936;-56
2022/06/16 01:24:46;;;;;;;;;3.67;3.67;;;;;20.91;47.13;98666.53;4881493;28;110599;-56
2022/06/16 01:27:35;;;;;;;;;4.33;3.33;;;;;20.92;46.95;98661.84;4962213;27;102544;-56
2022/06/16 01:30:09;;;;;;;;;6.67;4.00;;;;;20.92;47.57;98664.59;4987108;28;102532;-57
2022/06/16 01:32:48;;;;;;;;;4.00;4.00;;;;;20.93;47.23;98663.53;4972575;28;104288;-56
2022/06/16 01:35:28;;;;;;;;;4.67;3.67;;;;;20.91;47.52;98660.19;4985073;27;102445;-56
2022/06/16 01:38:36;;;;;;;;;5.00;5.00;;;;;20.90;47.52;98664.88;4987773;27;102370;-56
2022/06/16 01:41:17;;;;;;;;;3.00;3.00;;;;;20.90;47.32;98658.53;4974498;28;102467;-57
2022/06/16 01:43:47;;;;;;;;;4.00;4.00;;;;;20.88;47.39;98666.25;4975961;28;104283;-56
2022/06/16 01:46:23;;;;;;;;;4.00;4.00;;;;;20.89;47.53;98657.69;4971113;27;102268;-57
2022/06/16 01:48:55;;;;;;;;;3.00;2.67;;;;;20.89;47.43;98652.22;4992829;28;102040;-57
2022/06/16 01:51:32;;;;;;;;;3.00;3.00;;;;;20.88;47.19;98653.31;4963949;28;102382;-57
2022/06/16 01:54:21;;;;;;;;;4.00;3.67;;;;;20.88;47.72;98652.50;4987124;28;108500;-57
2022/06/16 01:57:19;;;;;;;;;3.33;3.00;;;;;20.88;47.44;98649.75;4982294;28;102693;-57
2022/06/16 02:00:10;;;;;;;;;4.00;3.00;;;;;20.86;47.33;98647.25;4992774;28;102257;-57
2022/06/16 02:02:41;;;;;;;;;3.67;3.67;;;;;20.88;47.36;98650.56;4986219;27;102634;-56
2022/06/16 02:05:14;;;;;;;;;4.00;3.00;;;;;20.88;47.77;98645.06;4988642;28;103873;-56
2022/06/16 02:07:43;;;;;;;;;4.67;3.67;;;;;20.89;47.16;98648.66;5001075;27;102354;-57
2022/06/16 02:10:13;;;;;;;;;3.33;3.33;;;;;20.88;47.66;98650.56;4978964;27;102173;-56
2022/06/16 02:12:58;;;;;;;;;4.00;4.00;;;;;20.87;47.70;98659.06;4990661;28;102410;-57
2022/06/16 02:16:02;;;;;;;;;4.00;4.00;;;;;20.89;47.25;98665.16;4996723;27;108881;-56
2022/06/16 02:18:33;;;;;;;;;2.67;2.67;;;;;20.86;47.27;98658.25;4988494;27;102168;-57
2022/06/16 02:21:06;;;;;;;;;4.00;4.00;;;;;20.87;47.11;98659.06;4978752;28;102020;-56
2022/06/16 02:23:33;;;;;;;;;3.33;3.33;;;;;20.87;47.29;98659.06;4991710;27;102334;-56
2022/06/16 02:26:00;;;;;;;;;4.33;3.67;;;;;20.84;47.27;98656.88;4992520;28;104050;-56
2022/06/16 02:28:28;;;;;;;;;3.67;3.00;;;;;20.82;47.57;98662.63;5002002;27;105418;-56
2022/06/16 02:30:58;;;;;;;;;3.67;3.67;;;;;20.83;47.51;98663.47;5006751;27;102200;-57
2022/06/16 02:33:38;;;;;;;;;4.00;4.00;;;;;20.81;47.55;98677.44;5010107;27;102268;-57
2022/06/16 02:36:09;;;;;;;;;3.33;3.33;;;;;20.83;47.31;98675.28;4997840;27;108791;-56
2022/06/16 02:38:47;;;;;;;;;2.67;2.67;;;;;20.85;47.81;98677.75;5001613;28;102405;-57
2022/06/16 02:41:20;;;;;;;;;3.33;3.33;;;;;20.85;47.47;98672.25;4992154;27;102532;-56
2022/06/16 02:43:51;;;;;;;;;6.00;5.00;;;;;20.84;47.55;98676.09;5002492;28;102084;-56
2022/06/16 02:46:23;;;;;;;;;4.67;3.67;;;;;20.83;47.58;98677.19;4992075;27;104141;-56
2022/06/16 02:48:59;;;;;;;;;4.67;4.33;;;;;20.81;47.87;98665.63;4999690;27;102281;-56
2022/06/16 02:51:45;;;;;;;;;3.00;3.00;;;;;20.81;47.48;98669.22;5001302;28;102517;-57
2022/06/16 02:54:24;;;;;;;;;4.00;4.00;;;;;20.81;47.68;98671.13;4992874;27;102333;-56
2022/06/16 02:56:58;;;;;;;;;4.33;4.00;;;;;20.81;47.38;98671.13;4997223;27;104060;-56
2022/06/16 02:59:32;;;;;;;;;5.00;4.00;;;;;20.80;47.83;98673.03;5002884;27;102340;-56
2022/06/16 03:02:02;;;;;;;;;3.33;3.33;;;;;20.81;47.54;98676.63;5002212;27;102467;-57
2022/06/16 03:04:40;;;;;;;;;3.00;3.00;;;;;20.78;47.41;98678.00;5001766;28;102426;-56
2022/06/16 03:07:10;;;;;;;;;4.00;3.33;;;;;20.79;47.32;98670.56;4993492;27;103965;-56
2022/06/16 03:09:38;;;;;;;;;3.00;2.00;;;;;20.77;47.88;98675.50;4995924;28;102394;-57
2022/06/16 03:12:06;;;;;;;;;3.33;3.33;;;;;20.80;47.46;98675.00;5003484;27;102199;-57
2022/06/16 03:14:34;;;;;;;;;3.00;3.00;;;;;20.80;47.77;98675.78;5005138;28;102200;-57
2022/06/16 03:17:02;;;;;;;;;3.67;3.67;;;;;20.80;47.21;98664.00;4998137;27;104249;-57
2022/06/16 03:19:29;;;;;;;;;3.00;3.00;;;;;20.80;47.60;98672.25;4997217;27;105111;-57
2022/06/16 03:21:56;;;;;;;;;4.00;4.00;;;;;20.79;47.58;98665.09;4999982;27;102694;-57
2022/06/16 03:24:23;;;;;;;;;3.00;3.00;;;;;20.78;47.45;98661.50;5001427;28;102294;-57
2022/06/16 03:26:50;;;;;;;;;4.00;4.00;;;;;20.79;47.68;98656.84;4992433;28;104055;-57
2022/06/16 03:29:17;;;;;;;;;4.00;4.00;;;;;20.78;47.26;98657.94;4990608;28;102475;-57
2022/06/16 03:31:44;;;;;;;;;3.67;3.67;;;;;20.78;47.41;98660.66;4994151;27;102290;-56
2022/06/16 03:34:12;;;;;;;;;4.00;3.00;;;;;20.77;47.51;98659.00;4995140;27;102391;-57
2022/06/16 03:36:39;;;;;;;;;4.67;4.67;;;;;20.76;47.71;98660.94;4973646;28;104071;-57
2022/06/16 03:39:06;;;;;;;;;2.67;2.67;;;;;20.76;47.94;98665.59;4988911;28;102051;-57
2022/06/16 03:41:33;;;;;;;;;4.00;4.00;;;;;20.77;47.66;98653.50;4992615;27;104027;-57
2022/06/16 03:44:00;;;;;;;;;3.67;3.67;;;;;20.77;47.55;98659.00;4993292;28;102589;-57
2022/06/16 03:46:28;;;;;;;;;4.00;4.00;;;;;20.77;47.72;98653.50;4993917;28;104229;-56
2022/06/16 03:48:55;;;;;;;;;4.00;4.00;;;;;20.80;47.82;98650.25;4987838;27;102168;-56
2022/06/16 03:51:22;;;;;;;;;3.00;3.00;;;;;20.80;47.61;98653.00;4995347;27;103121;-56
2022/06/16 03:53:49;;;;;;;;;4.33;3.00;;;;;20.78;47.41;98653.25;4992121;27;102489;-56
2022/06/16 03:56:16;;;;;;;;;3.67;3.67;;;;;20.78;47.28;98656.00;4991731;27;104082;-57
2022/06/16 03:58:43;;;;;;;;;5.00;3.33;;;;;20.76;47.47;98657.34;4998938;27;102229;-57
2022/06/16 04:01:10;;;;;;;;;4.00;3.67;;;;;20.76;47.78;98655.44;5002651;27;102119;-56
2022/06/16 04:06:23;;;;;;;;;4.00;3.67;;;;;20.77;47.41;98661.75;5002177;27;104191;-56
2022/06/16 04:08:50;;;;;;;;;2.67;2.67;;;;;20.76;47.34;98658.19;4988627;27;102314;-57
2022/06/16 04:11:32;;;;;;;;;5.00;4.67;;;;;20.75;47.81;98647.47;4994415;27;102661;-57
2022/06/16 04:14:02;;;;;;;;;2.67;2.67;;;;;20.74;47.53;98638.41;5005635;27;103117;-56
2022/06/16 04:16:31;;;;;;;;;3.00;3.00;;;;;20.76;47.27;98652.69;4993964;28;109326;-57
2022/06/16 04:18:59;;;;;;;;;3.33;3.00;;;;;20.74;47.78;98649.38;4990961;28;102256;-57
2022/06/16 04:21:26;;;;;;;;;4.00;4.00;;;;;20.74;47.59;98640.31;4983083;28;102337;-56
2022/06/16 04:23:53;;;;;;;;;4.67;4.33;;;;;20.76;47.75;98638.09;5001511;27;102409;-57
2022/06/16 04:26:20;;;;;;;;;5.00;4.00;;;;;20.76;47.82;98633.44;4995813;27;103674;-57
2022/06/16 04:28:48;;;;;;;;;3.67;3.00;;;;;20.74;47.73;98637.56;4994083;27;102156;-57
2022/06/16 04:31:15;;;;;;;;;4.67;4.00;;;;;20.75;47.56;98644.72;4994680;28;103323;-57
2022/06/16 04:33:42;;;;;;;;;3.33;3.00;;;;;20.75;47.79;98636.47;4996604;27;105044;-57
2022/06/16 04:36:10;;;;;;;;;3.33;3.33;;;;;20.73;47.70;98642.22;4991683;27;104106;-57
2022/06/16 04:38:37;;;;;;;;;4.00;3.67;;;;;20.75;47.82;98647.47;4983702;27;102238;-57
2022/06/16 04:41:04;;;;;;;;;3.00;3.00;;;;;20.74;47.42;98643.88;5002736;27;101994;-57
2022/06/16 04:43:31;;;;;;;;;3.67;3.67;;;;;20.74;47.47;98645.81;4985495;27;102306;-57
2022/06/16 04:45:59;;;;;;;;;2.33;1.67;;;;;20.73;47.58;98644.16;5006134;27;109115;-57
2022/06/16 04:48:27;;;;;;;;;2.67;2.67;;;;;20.75;47.51;98644.72;4995390;27;102298;-56
2022/06/16 04:50:54;;;;;;;;;4.00;4.00;;;;;20.74;47.59;98645.81;4997567;27;102149;-56
2022/06/16 04:53:21;;;;;;;;;3.00;2.33;;;;;20.73;47.27;98652.38;4994594;27;102813;-57
2022/06/16 04:55:55;;;;;;;;;3.00;3.00;;;;;20.73;47.53;98641.41;5004332;27;104169;-57
2022/06/16 04:58:23;;;;;;;;;3.00;3.00;;;;;20.73;47.56;98646.91;4999518;27;102767;-56
2022/06/16 05:00:50;;;;;;;;;4.00;4.00;;;;;20.73;47.64;98647.72;4996821;27;102446;-57
2022/06/16 05:03:37;;;;;;;;;3.33;2.67;;;;;20.73;47.28;98636.72;4988687;27;102189;-57
2022/06/16 05:06:04;;;;;;;;;3.00;3.00;;;;;20.73;47.41;98638.66;4999440;27;104316;-56
2022/06/16 05:08:32;;;;;;;;;2.67;2.67;;;;;20.73;47.68;98633.16;4999118;27;102494;-56
2022/06/16 05:10:59;;;;;;;;;4.00;4.00;;;;;20.73;47.37;98630.41;4996755;27;102351;-56
2022/06/16 05:13:26;;;;;;;;;3.67;3.67;;;;;20.74;47.50;98637.56;4986826;28;102415;-57
2022/06/16 05:15:54;;;;;;;;;4.33;4.00;;;;;20.73;47.53;98630.41;4987815;28;104079;-56
2022/06/16 05:18:21;;;;;;;;;3.00;3.00;;;;;20.73;47.30;98630.41;5000052;27;102207;-56
2022/06/16 05:20:48;;;;;;;;;3.00;3.00;;;;;20.74;47.23;98623.81;4993250;27;102261;-57
2022/06/16 05:23:15;;;;;;;;;2.67;2.67;;;;;20.73;47.58;98624.91;4996181;27;102653;-56
2022/06/16 05:25:42;;;;;;;;;3.67;3.33;;;;;20.73;47.71;98623.00;4993686;27;104077;-56
2022/06/16 05:28:10;;;;;;;;;2.33;2.33;;;;;20.73;47.64;98623.00;4996083;27;102122;-56
2022/06/16 05:30:37;;;;;;;;;5.00;4.00;;;;;20.71;47.37;98616.13;5000434;27;102418;-56
2022/06/16 05:33:04;;;;;;;;;3.67;2.67;;;;;20.74;47.47;98626.56;4989123;27;102131;-56
2022/06/16 05:35:31;;;;;;;;;2.33;2.33;;;;;20.75;47.55;98620.00;5005681;27;104187;-56
2022/06/16 05:37:58;;;;;;;;;2.00;1.00;;;;;20.76;47.27;98621.63;5000346;27;102411;-57
2022/06/16 05:40:26;;;;;;;;;2.33;1.67;;;;;20.75;47.46;98623.56;4984846;27;103352;-56
2022/06/16 05:42:53;;;;;;;;;3.33;3.33;;;;;20.76;47.75;98618.88;4998428;27;102129;-57
2022/06/16 05:45:20;;;;;;;;;3.00;3.00;;;;;20.76;47.55;98619.69;4983990;27;104117;-56
2022/06/16 05:47:47;;;;;;;;;3.67;3.67;;;;;20.76;47.54;98619.69;5005418;27;102179;-57
2022/06/16 05:50:15;;;;;;;;;2.67;2.67;;;;;20.76;47.50;98610.63;4993343;27;102602;-57
2022/06/16 05:52:43;;;;;;;;;3.33;3.00;;;;;20.76;47.56;98621.63;5001149;27;102591;-56
2022/06/16 05:55:13;;;;;;;;;3.00;3.00;;;;;20.75;47.42;98620.00;4981309;27;104080;-56
2022/06/16 05:57:40;;;;;;;;;3.00;3.00;;;;;20.78;47.48;98613.94;4997841;27;102489;-56
2022/06/16 06:00:12;;;;;;;;;4.00;4.00;;;;;20.77;47.44;98615.88;5003882;27;103134;-57
2022/06/16 06:02:40;;;;;;;;;2.33;2.33;;;;;20.78;47.67;98611.19;4985925;27;102190;-56
2022/06/16 06:05:08;;;;;;;;;3.00;3.00;;;;;20.78;47.59;98619.44;4996931;27;104094;-57
2022/06/16 06:18:39;;;;;;;;;2.67;2.67;;;;;20.79;47.36;98612.88;4994103;27;102063;-56
2022/06/16 06:21:06;;;;;;;;;2.67;2.67;;;;;20.81;47.67;98616.16;4992946;27;102302;-57
2022/06/16 06:23:33;;;;;;;;;3.33;3.33;;;;;20.80;47.47;98604.34;4997076;27;102382;-56
2022/06/16 06:26:00;;;;;;;;;3.00;3.00;;;;;20.81;47.82;98599.66;4989114;27;104124;-56
2022/06/16 06:28:28;;;;;;;;;2.67;2.67;;;;;20.82;47.38;98606.81;4985533;28;102047;-56
2022/06/16 06:30:55;;;;;;;;;3.00;3.00;;;;;20.81;47.54;98607.91;4996223;28;102203;-56
2022/06/16 06:33:22;;;;;;;;;4.00;3.33;;;;;20.81;47.32;98605.16;4993562;27;102284;-56
2022/06/16 06:35:49;;;;;;;;;2.00;2.00;;;;;20.81;47.81;98597.75;4980795;27;104065;-56
2022/06/16 06:38:16;;;;;;;;;2.67;2.67;;;;;20.83;47.80;98600.25;4997540;28;102204;-56
2022/06/16 06:40:43;;;;;;;;;3.33;2.67;;;;;20.83;47.54;98603.00;4992735;27;105755;-56
2022/06/16 06:43:10;;;;;;;;;3.00;2.67;;;;;20.84;47.91;98601.91;4986191;27;108596;-57
2022/06/16 06:45:37;;;;;;;;;3.00;3.00;;;;;20.84;47.67;98601.91;4988893;27;104209;-57
2022/06/16 06:48:07;;;;;;;;;3.33;3.00;;;;;20.85;47.27;98598.03;5001372;27;102212;-56
2022/06/16 06:50:37;;;;;;;;;2.00;2.00;;;;;20.86;47.65;98596.94;5001218;27;102589;-57
2022/06/16 06:53:05;;;;;;;;;3.67;3.67;;;;;20.86;47.56;98592.28;4991492;28;102386;-56
2022/06/16 06:55:40;;;;;;;;;2.67;2.33;;;;;20.86;48.03;98595.03;4984792;28;104087;-56
2022/06/16 06:58:07;;;;;;;;;1.67;1.67;;;;;20.87;47.45;98591.19;5000342;28;102074;-56
2022/06/16 07:00:35;;;;;;;;;3.67;3.00;;;;;20.87;47.52;98590.34;4995327;28;102248;-56
2022/06/16 07:03:02;;;;;;;;;3.67;3.00;;;;;20.87;47.41;98585.69;5000342;27;102162;-56
2022/06/16 07:05:29;;;;;;;;;2.00;1.67;;;;;20.88;47.59;98583.78;4997777;27;104069;-56
2022/06/16 07:07:58;;;;;;;;;3.00;3.00;;;;;20.88;47.37;98590.09;4992899;27;101770;-56
2022/06/16 07:10:25;;;;;;;;;3.33;3.00;;;;;20.89;47.32;98591.72;4993033;28;102301;-56
2022/06/16 07:12:52;;;;;;;;;3.00;3.00;;;;;20.91;47.64;98594.22;4989403;27;102255;-56
2022/06/16 07:15:20;;;;;;;;;2.67;2.67;;;;;20.90;47.44;98587.06;4976163;28;103820;-57
2022/06/16 07:17:47;;;;;;;;;3.00;2.00;;;;;20.91;47.26;98580.47;4983804;28;102406;-57
2022/06/16 07:20:16;;;;;;;;;3.00;3.00;;;;;20.93;47.54;98583.81;4994890;27;108699;-57
2022/06/16 07:22:44;;;;;;;;;2.50;2.50;;;;;20.92;47.29;98577.47;4999014;27;102978;-57
2022/06/16 07:25:12;;;;;;;;;3.00;3.00;;;;;20.94;47.37;98582.69;4992991;27;104173;-57
2022/06/16 07:27:39;;;;;;;;;2.33;2.33;;;;;20.94;47.83;98582.69;5002464;27;102229;-56
2022/06/16 07:30:13;;;;;;;;;3.00;3.00;;;;;20.95;47.90;98584.34;5001019;27;102339;-57
2022/06/16 07:32:41;;;;;;;;;3.33;3.33;;;;;20.94;47.93;98589.00;4992790;27;104310;-58
2022/06/16 07:35:08;;;;;;;;;3.67;3.00;;;;;20.96;47.58;98585.19;4993155;27;104059;-56
2022/06/16 07:37:35;;;;;;;;;4.00;4.00;;;;;20.95;47.33;98581.59;4999007;27;102221;-57
2022/06/16 07:40:04;;;;;;;;;2.67;2.67;;;;;20.96;47.32;98576.94;4995806;27;102031;-57
2022/06/16 07:42:31;;;;;;;;;2.67;1.67;;;;;20.95;47.38;98584.34;4986198;28;104070;-56
2022/06/16 07:44:58;;;;;;;;;2.67;2.67;;;;;20.96;47.75;98577.75;4998579;27;104232;-57
2022/06/16 07:47:25;;;;;;;;;3.33;2.33;;;;;20.96;47.25;98575.00;4988704;28;102138;-57
2022/06/16 07:49:52;;;;;;;;;3.00;3.00;;;;;20.96;47.55;98569.50;5003215;27;102130;-57
2022/06/16 07:52:19;;;;;;;;;3.00;3.00;;;;;20.97;47.39;98568.41;4998824;27;102297;-57
2022/06/16 07:54:49;;;;;;;;;4.00;3.00;;;;;20.99;47.21;98568.13;4995837;27;104490;-57
2022/06/16 07:57:18;;;;;;;;;2.67;2.33;;;;;21.00;47.32;98569.78;5003749;27;102277;-57
2022/06/16 07:59:54;;;;;;;;;2.00;2.00;;;;;21.01;47.81;98572.28;5002046;27;101998;-57
2022/06/16 08:02:21;;;;;;;;;2.00;2.00;;;;;21.01;47.90;98566.78;5001965;27;102575;-57
2022/06/16 08:04:48;;;;;;;;;2.33;2.33;;;;;21.02;47.87;98565.69;4996813;27;104141;-57
2022/06/16 08:07:15;;;;;;;;;4.00;3.67;;;;;21.02;47.83;98568.44;4993398;27;102399;-57
2022/06/16 08:09:42;;;;;;;;;0.33;0.33;;;;;21.02;47.77;98562.94;4998263;27;102006;-57
2022/06/16 08:12:10;;;;;;;;;2.00;2.00;;;;;21.03;47.73;98556.31;5006642;27;102377;-56
2022/06/16 08:14:41;;;;;;;;;1.67;1.67;;;;;21.04;47.59;98559.91;4988627;27;109182;-56
2022/06/16 08:17:15;;;;;;;;;4.67;2.67;;;;;21.05;47.40;98564.31;5008028;27;102491;-57
2022/06/16 08:19:42;;;;;;;;;3.00;3.00;;;;;21.05;47.78;98562.41;4994153;27;102365;-57
2022/06/16 08:22:12;;;;;;;;;3.33;3.33;;;;;21.07;47.27;98564.88;5007411;27;102138;-57
2022/06/16 08:24:40;;;;;;;;;3.00;3.00;;;;;21.06;47.74;98553.06;5001180;27;108894;-57
2022/06/16 08:27:07;;;;;;;;;3.00;2.33;;;;;21.06;47.79;98558.56;5001914;27;102017;-57
2022/06/16 08:29:35;;;;;;;;;3.67;3.00;;;;;21.08;47.10;98556.34;4998412;28;102524;-57
2022/06/16 08:32:02;;;;;;;;;3.67;2.67;;;;;21.09;47.79;98555.25;4997277;28;103492;-57
2022/06/16 08:34:30;;;;;;;;;2.67;2.67;;;;;21.10;47.51;98554.16;4985989;27;104152;-57
2022/06/16 08:39:25;;;;;;;;;4.00;4.00;;;;;21.11;47.70;98555.00;4948956;28;103329;-59
2022/06/16 08:42:00;;;;;;;;;3.00;2.67;;;;;21.12;47.88;98551.16;4950812;28;102273;-59
2022/06/16 08:45:16;;;;;;;;;2.00;2.00;;;;;21.12;47.84;98549.22;4949180;28;104053;-60
2022/06/16 08:47:45;;;;;;;;;2.67;2.67;;;;;21.13;47.77;98545.41;4946628;28;102510;-60
2022/06/16 08:50:32;;;;;;;;;2.67;2.00;;;;;21.14;47.72;98544.31;4943198;28;102442;-58
2022/06/16 08:53:15;;;;;;;;;2.67;2.67;;;;;21.16;47.29;98546.81;4948512;28;102541;-60
2022/06/16 08:56:00;;;;;;;;;4.00;3.00;;;;;21.15;47.22;98534.13;4951723;28;108921;-60
2022/06/16 08:59:06;;;;;;;;;3.00;2.00;;;;;21.17;47.20;98534.69;4943243;28;102575;-59
2022/06/16 09:01:47;;;;;;;;;2.67;2.33;;;;;21.18;47.25;98539.91;4944722;28;102023;-59
2022/06/16 09:04:26;;;;;;;;;2.33;2.33;;;;;21.21;47.69;98533.88;4970765;28;102536;-60
2022/06/16 09:06:57;;;;;;;;;2.67;2.67;;;;;21.22;47.63;98531.94;4956427;28;104288;-59
2022/06/16 09:12:56;;;;;;;;;2.00;2.00;;;;;21.25;47.56;98540.47;4941322;28;102434;-59
2022/06/16 09:15:41;;;;;;;;;2.67;2.67;;;;;21.26;47.50;98536.63;4941670;28;102220;-59
2022/06/16 09:18:38;;;;;;;;;1.67;1.67;;;;;21.24;47.17;98535.25;4948901;28;108958;-59
2022/06/16 09:21:19;;;;;;;;;2.67;1.67;;;;;21.28;46.88;98537.19;4939987;28;102106;-59
2022/06/16 09:23:51;;;;;;;;;1.67;1.67;;;;;21.28;47.70;98534.44;4962751;28;102443;-60
2022/06/16 09:26:31;;;;;;;;;2.00;2.00;;;;;21.28;47.43;98534.44;4943786;28;102617;-59
2022/06/16 09:29:05;;;;;;;;;2.33;2.00;;;;;21.29;47.19;98530.59;4965102;28;104007;-59
2022/06/16 09:32:07;;;;;;;;;1.67;1.67;;;;;21.30;47.77;98535.00;4942167;28;102167;-59
2022/06/16 09:34:39;;;;;;;;;2.33;2.33;;;;;21.31;47.43;98535.81;4930154;28;102538;-58
2022/06/16 09:37:10;;;;;;;;;2.67;2.67;;;;;21.32;47.56;98524.56;4946306;28;102182;-59
2022/06/16 09:39:39;;;;;;;;;3.00;3.00;;;;;21.32;47.09;98524.56;4966145;28;104213;-59
2022/06/16 09:42:35;;;;;;;;;2.33;2.33;;;;;21.34;47.06;98527.03;4961507;28;102171;-58
2022/06/16 09:45:05;;;;;;;;;1.67;1.67;;;;;21.35;47.00;98537.75;4990640;28;102516;-58
2022/06/16 09:47:39;;;;;;;;;1.67;1.67;;;;;21.35;47.03;98540.50;4963546;28;102344;-58
2022/06/16 09:50:25;;;;;;;;;2.67;2.00;;;;;21.38;47.30;98535.56;4935797;28;104229;-58
2022/06/16 09:53:02;;;;;;;;;4.00;3.00;;;;;21.39;47.54;98531.72;4951757;28;102440;-58
2022/06/16 09:55:34;;;;;;;;;2.00;1.67;;;;;21.38;47.22;98541.91;4957529;28;102169;-59
2022/06/16 09:58:34;;;;;;;;;2.33;2.33;;;;;21.41;47.58;98537.75;4989423;28;102424;-58
2022/06/16 10:01:04;;;;;;;;;5.00;2.33;;;;;21.37;47.71;98526.50;4951715;28;108828;-60
2022/06/16 10:03:40;;;;;;;;;2.33;2.00;;;;;21.41;47.63;98532.25;4961606;28;102396;-59
2022/06/16 10:06:10;;;;;;;;;3.00;2.00;;;;;21.43;47.33;98521.81;4955413;28;102043;-60
2022/06/16 10:08:49;;;;;;;;;2.00;2.00;;;;;21.43;47.04;98525.41;4989079;28;103256;-59
2022/06/16 10:11:31;;;;;;;;;3.00;2.33;;;;;21.43;47.01;98519.91;4952582;28;108890;-60
2022/06/16 10:14:19;;;;;;;;;2.67;2.67;;;;;21.45;47.58;98522.38;4958904;28;103089;-59
2022/06/16 10:17:04;;;;;;;;;2.33;2.33;;;;;21.45;47.26;98512.19;4962838;28;102081;-59
2022/06/16 10:19:34;;;;;;;;;2.00;2.00;;;;;21.47;47.43;98514.69;4946768;28;102727;-59
2022/06/16 10:22:02;;;;;;;;;3.33;3.00;;;;;21.47;47.17;98515.50;4953196;28;104229;-58
2022/06/16 10:25:00;;;;;;;;;2.67;2.33;;;;;21.47;47.11;98509.19;4959918;28;102220;-58
2022/06/16 10:27:33;;;;;;;;;2.00;2.00;;;;;21.47;47.11;98515.50;4946665;28;102677;-58
2022/06/16 10:30:00;;;;;;;;;2.67;2.67;;;;;21.48;47.13;98513.59;4958101;28;102474;-58
2022/06/16 10:32:41;;;;;;;;;2.67;2.00;;;;;21.49;46.94;98517.97;4955810;28;104068;-59
2022/06/16 10:35:18;;;;;;;;;1.67;1.67;;;;;21.49;47.17;98515.22;4952129;28;102111;-58
2022/06/16 10:37:48;;;;;;;;;3.00;2.67;;;;;21.49;47.68;98516.03;4952625;28;102914;-61
2022/06/16 10:40:18;;;;;;;;;3.33;3.00;;;;;21.50;47.59;98522.38;4977103;28;102626;-60
2022/06/16 10:42:50;;;;;;;;;3.00;2.00;;;;;21.49;47.21;98517.97;4946447;28;104213;-60
2022/06/16 10:45:35;;;;;;;;;2.67;2.00;;;;;21.50;47.08;98519.63;4958473;28;102147;-59
2022/06/16 10:48:26;;;;;;;;;2.67;2.67;;;;;21.51;47.01;98515.78;4951103;28;103226;-59
2022/06/16 10:51:15;;;;;;;;;3.00;3.00;;;;;21.52;46.95;98514.69;4980331;28;102320;-59
2022/06/16 10:54:13;;;;;;;;;3.33;3.33;;;;;21.52;47.59;98517.44;4959977;28;108923;-59
2022/06/16 10:56:44;;;;;;;;;2.00;2.00;;;;;21.54;47.49;98515.22;4956975;28;102282;-60
2022/06/16 10:59:14;;;;;;;;;3.00;3.00;;;;;21.53;47.01;98513.56;4962418;28;102691;-59
2022/06/16 11:01:48;;;;;;;;;2.00;2.00;;;;;21.54;47.06;98505.03;4965082;28;102827;-59
2022/06/16 11:04:22;;;;;;;;;3.33;3.00;;;;;21.54;47.48;98505.03;4955106;28;108700;-60
2022/06/16 11:06:54;;;;;;;;;2.67;2.67;;;;;21.55;47.08;98505.88;4960653;28;102625;-58
2022/06/16 11:09:23;;;;;;;;;2.00;2.00;;;;;21.56;46.87;98507.53;4958120;28;102529;-59
2022/06/16 11:11:58;;;;;;;;;2.33;2.00;;;;;21.56;47.55;98507.53;4987715;28;102503;-59
2022/06/16 11:14:43;;;;;;;;;3.00;3.00;;;;;21.55;47.17;98495.69;4990760;28;103689;-60
2022/06/16 11:17:30;;;;;;;;;2.67;2.67;;;;;21.58;47.61;98489.63;4978544;28;102528;-58
2022/06/16 11:19:59;;;;;;;;;2.67;2.67;;;;;21.59;47.45;98487.72;4958434;28;102045;-58
2022/06/16 11:22:32;;;;;;;;;2.33;2.33;;;;;21.59;46.87;98491.28;4989210;28;102443;-59
2022/06/16 11:25:14;;;;;;;;;2.33;2.00;;;;;21.61;47.01;98488.28;4958312;28;103578;-59
2022/06/16 11:27:46;;;;;;;;;1.67;1.67;;;;;21.62;47.03;98479.72;4964451;28;102230;-58
2022/06/16 11:30:30;;;;;;;;;2.00;1.67;;;;;21.63;46.90;98486.88;4954007;28;102573;-58
2022/06/16 11:32:57;;;;;;;;;3.33;3.00;;;;;21.66;46.91;98488.25;4962267;28;102447;-59
2022/06/16 11:35:47;;;;;;;;;2.00;2.00;;;;;21.67;47.23;98481.66;4957750;28;104134;-60
2022/06/16 11:38:26;;;;;;;;;3.00;3.00;;;;;21.68;47.08;98472.31;4963535;28;102405;-60
2022/06/16 11:41:04;;;;;;;;;2.00;2.00;;;;;21.68;47.01;98477.81;4963220;28;102487;-59
2022/06/16 11:44:05;;;;;;;;;4.00;2.33;;;;;21.67;46.86;98467.88;4952142;28;102461;-59
2022/06/16 11:46:32;;;;;;;;;1.67;1.67;;;;;21.68;47.14;98467.63;4952714;28;108730;-59
2022/06/16 11:49:09;;;;;;;;;1.00;1.00;;;;;21.68;47.38;98472.31;4957985;28;102622;-59
2022/06/16 11:51:50;;;;;;;;;2.67;2.67;;;;;21.69;46.77;98463.78;4949914;28;102238;-59
2022/06/16 11:54:56;;;;;;;;;2.67;2.00;;;;;21.70;47.33;98456.34;4973354;28;103855;-61
2022/06/16 11:57:30;;;;;;;;;4.00;4.00;;;;;21.71;47.34;98466.22;4954538;28;104063;-59
2022/06/16 12:00:15;;;;;;;;;3.00;3.00;;;;;21.71;46.91;98455.22;4956496;28;102367;-59
2022/06/16 12:02:54;;;;;;;;;3.00;3.00;;;;;21.71;46.98;98455.22;4958673;28;104883;-58
2022/06/16 12:05:37;;;;;;;;;3.00;3.00;;;;;21.71;47.42;98452.47;4957059;28;102243;-59
2022/06/16 12:08:14;;;;;;;;;2.00;2.00;;;;;21.70;47.26;98453.59;4953903;28;104065;-58
2022/06/16 12:10:59;;;;;;;;;2.00;2.00;;;;;21.69;47.40;98449.19;4954893;28;102571;-59
2022/06/16 12:13:37;;;;;;;;;2.33;2.33;;;;;21.69;47.09;98450.03;4988854;28;102538;-59